AA4780 / N652RS 7700 Squawk Report (18th of November, 2019)

Aircraft E145 Reg No. N652RS Age N/A
Model ERJ-145 Jet engines 2 First flight 05-01
Registered 30-10-18 Rollout 04-01 Delivered 17-05-01
Construction No. 145432 Line No. N/A Series LR
ADSHEX A895B0 Airline name American Eagle Airlines Owner Piedmont Airlines
Airfield based Philadelphia International~PA~N First tracked 2017-07-15 01:04:00

Flight history for N652RS

Route Flight No Date Playback
???? N/A 2019-12-10 23:52:00
Philadelphia Intl (PHL) - Burlington Intl (BTV) - Philadelphia Intl (PHL) AA4812 2019-12-10 22:40:00
Toronto Pearson International (YYZ) - Philadelphia Intl (PHL) AA4887 2019-12-10 18:40:00
Philadelphia Intl (PHL) - Richmond Intl (RIC) - Philadelphia Intl (PHL) AA4863 2019-12-10 02:13:00
Charlotte Douglas (CLT) - Salisbury Ocean City Wicomico Rgnl (SBY) AA4795 2019-12-09 19:25:00
Salisbury Ocean City Wicomico Rgnl (SBY) - Philadelphia Intl (PHL) AA4776 2019-12-09 18:06:00
Charlotte Douglas (CLT) - Salisbury Ocean City Wicomico Rgnl (SBY) AA4795 2019-12-09 16:55:00
Salisbury Ocean City Wicomico Rgnl (SBY) - Charlotte Douglas (CLT) AA4888 2019-12-09 11:59:00
Philadelphia Intl (PHL) - Salisbury Ocean City Wicomico Rgnl (SBY) AA4805 2019-12-09 13:16:00
Newport News Williamsburg Intl (PHF) - Philadelphia Intl (PHL) AA4933 2019-12-09 00:41:00
Charlotte Douglas (CLT) - Newport News Williamsburg Intl (PHF) AA4911 2019-12-08 23:59:00
Montgomery Regional Airport (MGM) - Charlotte Douglas (CLT) AA4839 2019-12-08 22:06:00
Tri-Cities Regional Airport (TRI) - Charlotte Douglas (CLT) AA4862 2019-12-08 17:20:00
???? N/A 2019-12-08 01:49:00
Charlotte Douglas (CLT) - Jackson Evers Intl (JAN) - Charlotte Douglas (CLT) AA4756 2019-12-08 01:34:00
Evansville Regional (EVV) - Charlotte Douglas (CLT) AA4816 2019-12-07 20:06:00
Erie Intl Tom Ridge Fld (ERI) - Charlotte Douglas (CLT) AA4961 2019-12-07 14:53:00
Charlotte Douglas (CLT) - Erie Intl Tom Ridge Fld (ERI) AA4960 2019-12-07 03:20:00
Montgomery Regional Airport (MGM) - Charlotte Douglas (CLT) AA4925 2019-12-07 02:06:00
Charlotte Douglas (CLT) - Columbia Metropolitan (CAE) - Charlotte Douglas (CLT) AA4853 2019-12-06 19:55:00
Time Lat Lon Altitude Heading Speed Vertical Rate
2019-11-18 21:49:57 GMT 39.867893 -75.239380 250 255 149 -640
2019-11-18 21:49:47 GMT 39.869614 -75.230850 400 256 150 -768
2019-11-18 21:49:36 GMT 39.871525 -75.221497 675 256 156 -896
2019-11-18 21:49:33 GMT 39.872131 -75.218430 575 256 154 -896
2019-11-18 21:49:26 GMT 39.873413 -75.211983 675 256 154 -1024
2019-11-18 21:49:17 GMT 39.874924 -75.204346 950 256 160 -960
2019-11-18 21:49:07 GMT 39.876709 -75.195030 950 256 161 -960
2019-11-18 21:49:04 GMT 39.877304 -75.192039 1,000 256 161 -896
2019-11-18 21:48:55 GMT 39.879066 -75.183289 1,150 256 157 -768
2019-11-18 21:48:44 GMT 39.880875 -75.174370 1,275 256 157 -960
2019-11-18 21:48:41 GMT 39.881489 -75.171265 1,350 256 157 -832
2019-11-18 21:48:37 GMT 39.882374 -75.166870 1,425 256 158 -704
2019-11-18 21:48:32 GMT 39.883118 -75.163147 1,450 256 158 -768
2019-11-18 21:48:24 GMT 39.884583 -75.155502 1,600 256 160 -896
2019-11-18 21:48:21 GMT 39.885166 -75.152710 1,625 256 162 -768
2019-11-18 21:48:14 GMT 39.886688 -75.144691 1,750 256 173 -1024
2019-11-18 21:48:10 GMT 39.887192 -75.142242 1,800 256 176 -1088
2019-11-18 21:48:05 GMT 39.888565 -75.135498 1,900 256 186 -1280
2019-11-18 21:48:00 GMT 39.889400 -75.131348 1,975 256 190 -896
2019-11-18 21:47:55 GMT 39.890659 -75.125061 2,075 256 195 -1152
2019-11-18 21:47:50 GMT 39.891678 -75.119797 2,175 256 197 -1088
2019-11-18 21:47:44 GMT 39.893082 -75.112732 2,275 256 198 -1088
2019-11-18 21:47:39 GMT 39.894150 -75.107315 2,375 256 199 -1216
2019-11-18 21:47:33 GMT 39.895874 -75.098694 2,525 256 200 -1216
2019-11-18 21:47:29 GMT 39.896431 -75.095825 2,575 256 201 -1216
2019-11-18 21:47:22 GMT 39.898155 -75.087402 2,700 256 202 -1088
2019-11-18 21:47:18 GMT 39.899040 -75.082642 2,775 257 203 -1152
2019-11-18 21:47:12 GMT 39.900330 -75.075790 2,925 257 205 -960
2019-11-18 21:47:08 GMT 39.901245 -75.070953 2,950 257 204 -960
2019-11-18 21:47:04 GMT 39.902344 -75.065224 3,025 256 202 -768
2019-11-18 21:47:01 GMT 39.902893 -75.062416 3,050 256 201 -768
2019-11-18 21:46:58 GMT 39.903625 -75.058655 3,100 256 200 -704
2019-11-18 21:46:52 GMT 39.905231 -75.050537 3,150 256 197 -256
2019-11-18 21:46:47 GMT 39.906006 -75.046593 3,175 256 198 64
2019-11-18 21:46:41 GMT 39.907650 -75.038513 3,175 256 199 -64
2019-11-18 21:46:36 GMT 39.908722 -75.032959 3,175 257 199 0
2019-11-18 21:46:31 GMT 39.909794 -75.026855 3,175 258 202 -128
2019-11-18 21:46:26 GMT 39.910629 -75.022095 3,175 258 202 -128
2019-11-18 21:46:20 GMT 39.911934 -75.013916 3,175 261 205 -64
2019-11-18 21:46:16 GMT 39.912415 -75.009750 3,175 263 204 -128
2019-11-18 21:46:10 GMT 39.912956 -75.001831 3,175 270 202 128
2019-11-18 21:46:06 GMT 39.912910 -74.997375 3,175 275 200 128
2019-11-18 21:46:00 GMT 39.912071 -74.990234 3,175 283 196 0
2019-11-18 21:45:54 GMT 39.910679 -74.982910 3,150 285 197 -64
2019-11-18 21:45:50 GMT 39.909805 -74.978584 3,150 285 195 0
2019-11-18 21:45:45 GMT 39.908798 -74.973572 3,175 285 197 -64
2019-11-18 21:45:39 GMT 39.907333 -74.966225 3,175 285 198 -192
2019-11-18 21:45:33 GMT 39.905777 -74.958824 3,450 285 204 -576
2019-11-18 21:45:28 GMT 39.904671 -74.953430 3,225 286 203 -384
2019-11-18 21:45:25 GMT 39.903881 -74.949646 3,250 285 204 -640
2019-11-18 21:45:20 GMT 39.902344 -74.942223 3,400 285 207 -1088
2019-11-18 21:45:15 GMT 39.901382 -74.937386 3,425 285 208 -1152
2019-11-18 21:45:08 GMT 39.899876 -74.929871 3,525 286 204 -1088
2019-11-18 21:45:04 GMT 39.898590 -74.924431 3,600 291 202 -960
2019-11-18 21:44:57 GMT 39.895546 -74.916992 3,725 308 201 -960
2019-11-18 21:44:54 GMT 39.894058 -74.914734 3,750 319 203 -960
2019-11-18 21:44:49 GMT 39.889114 -74.909859 3,850 338 207 -960
2019-11-18 21:44:40 GMT 39.882374 -74.906799 3,975 349 211 -960
2019-11-18 21:44:37 GMT 39.879501 -74.906097 4,025 351 212 -1024
2019-11-18 21:44:33 GMT 39.875019 -74.905090 4,975 351 213 -960
2019-11-18 21:44:27 GMT 39.869339 -74.903893 4,325 351 215 -1024
2019-11-18 21:44:21 GMT 39.861832 -74.902222 4,700 350 225 -1088
2019-11-18 21:44:18 GMT 39.859451 -74.901680 4,375 351 220 -1024
2019-11-18 21:44:09 GMT 39.851185 -74.899780 4,525 350 224 -1024
2019-11-18 21:44:06 GMT 39.848099 -74.899055 4,550 350 225 -1024
2019-11-18 21:43:59 GMT 39.840057 -74.897095 4,700 350 229 -1024
2019-11-18 21:43:56 GMT 39.837963 -74.896545 4,725 350 231 -896
2019-11-18 21:43:47 GMT 39.827087 -74.893738 4,875 349 239 -768
2019-11-18 21:43:37 GMT 39.817154 -74.890991 5,125 348 248 -896
2019-11-18 21:43:34 GMT 39.813766 -74.890038 5,050 348 251 -1024
2019-11-18 21:43:30 GMT 39.808029 -74.888428 5,200 349 255 -1984
2019-11-18 21:43:26 GMT 39.803841 -74.887268 5,250 349 255 -2048
2019-11-18 21:43:17 GMT 39.793224 -74.884399 5,775 349 252 -2560
2019-11-18 21:43:08 GMT 39.784054 -74.882019 5,975 349 250 -2560
2019-11-18 21:43:04 GMT 39.779491 -74.880798 6,175 349 249 -2560
2019-11-18 21:42:59 GMT 39.773163 -74.879150 6,400 349 247 -2432
2019-11-18 21:42:54 GMT 39.768227 -74.877869 6,550 349 245 -2368
2019-11-18 21:42:49 GMT 39.761307 -74.876068 6,800 349 244 -1920
2019-11-18 21:42:45 GMT 39.757099 -74.874939 6,925 349 245 -1792
2019-11-18 21:42:37 GMT 39.749268 -74.872963 7,125 349 246 -1664
2019-11-18 21:42:34 GMT 39.745239 -74.871887 7,200 349 247 -1344
2019-11-18 21:42:28 GMT 39.738667 -74.870178 7,325 349 251 -832
2019-11-18 21:42:24 GMT 39.730133 -74.867882 7,375 349 254 -1088
2019-11-18 21:42:21 GMT 39.727119 -74.867065 7,500 349 256 -1216
2019-11-18 21:42:14 GMT 39.721756 -74.865555 7,575 349 258 -1216
2019-11-18 21:42:09 GMT 39.716583 -74.864182 7,750 349 259 -1216
2019-11-18 21:42:06 GMT 39.713062 -74.863220 7,725 349 260 -1216
2019-11-18 21:42:03 GMT 39.703098 -74.860535 7,950 349 263 -960
2019-11-18 21:41:58 GMT 39.703098 -74.860535 7,875 349 262 -1216
2019-11-18 21:41:52 GMT 39.696911 -74.858887 8,000 349 264 -1152
2019-11-18 21:41:47 GMT 39.684586 -74.855583 8,125 349 268 -576
2019-11-18 21:41:42 GMT 39.684586 -74.855583 8,150 349 268 -576
2019-11-18 21:41:39 GMT 39.680943 -74.854614 8,175 349 269 -128
2019-11-18 21:41:34 GMT 39.673122 -74.852539 8,175 349 269 64
2019-11-18 21:41:26 GMT 39.665543 -74.850510 8,175 349 269 0
2019-11-18 21:41:21 GMT 39.659435 -74.848816 8,175 349 269 0
2019-11-18 21:41:17 GMT 39.654034 -74.847351 8,175 349 270 0
2019-11-18 21:41:14 GMT 39.649101 -74.846008 8,175 349 271 64
2019-11-18 21:41:10 GMT 39.646168 -74.845215 8,175 349 272 0
2019-11-18 21:41:07 GMT 39.640720 -74.843811 8,175 349 272 0
2019-11-18 21:41:02 GMT 39.635273 -74.842346 8,175 349 272 -64
2019-11-18 21:40:59 GMT 39.631577 -74.841377 8,175 349 273 -64
2019-11-18 21:40:56 GMT 39.628338 -74.840454 8,175 349 273 -64
2019-11-18 21:40:49 GMT 39.619675 -74.838150 8,175 349 274 64
2019-11-18 21:40:46 GMT 39.615395 -74.836975 8,175 349 275 64
2019-11-18 21:40:43 GMT 39.611160 -74.835884 8,175 349 276 -192
2019-11-18 21:40:39 GMT 39.606628 -74.834686 8,725 350 281 -1024
2019-11-18 21:40:35 GMT 39.602360 -74.833557 8,200 349 277 -256
2019-11-18 21:40:29 GMT 39.593796 -74.831299 8,225 349 279 -448
2019-11-18 21:40:25 GMT 39.588161 -74.829895 8,250 349 280 -640
2019-11-18 21:40:19 GMT 39.576431 -74.826965 8,375 350 282 -1024
2019-11-18 21:40:15 GMT 39.576431 -74.826965 8,400 350 281 -1024
2019-11-18 21:40:10 GMT 39.569504 -74.825256 8,500 350 281 -960
2019-11-18 21:40:04 GMT 39.562820 -74.823639 8,575 350 281 -1024
2019-11-18 21:40:00 GMT 39.557693 -74.822388 8,725 350 281 -960
2019-11-18 21:39:57 GMT 39.553806 -74.821472 8,700 350 282 -1024
2019-11-18 21:39:54 GMT 39.549454 -74.820419 8,750 350 282 -960
2019-11-18 21:39:48 GMT 39.542496 -74.818726 8,850 350 282 -960
2019-11-18 21:39:45 GMT 39.537598 -74.817551 9,050 350 270 -832
2019-11-18 21:39:38 GMT 39.528202 -74.815308 9,000 350 276 -896
2019-11-18 21:39:35 GMT 39.524460 -74.814384 9,050 350 272 -768
2019-11-18 21:39:29 GMT 39.517311 -74.812683 9,125 350 267 -640
2019-11-18 21:39:26 GMT 39.514160 -74.811882 9,150 350 264 -256
2019-11-18 21:39:23 GMT 39.510773 -74.811043 9,150 350 264 -256
2019-11-18 21:39:20 GMT 39.506184 -74.809937 9,175 350 263 0
2019-11-18 21:39:13 GMT 39.496811 -74.807640 9,175 350 264 0
2019-11-18 21:39:07 GMT 39.491287 -74.806335 9,175 350 264 0
2019-11-18 21:39:03 GMT 39.477787 -74.802979 9,175 350 264 -64
2019-11-18 21:38:57 GMT 39.477787 -74.802979 9,175 350 265 0
2019-11-18 21:38:54 GMT 39.474899 -74.802307 9,175 350 265 0
2019-11-18 21:38:49 GMT 39.468842 -74.800835 9,175 350 265 0
2019-11-18 21:38:46 GMT 39.466415 -74.800240 9,175 350 265 -64
2019-11-18 21:38:43 GMT 39.462334 -74.799194 9,175 350 265 -64
2019-11-18 21:38:37 GMT 39.447052 -74.795578 9,175 332 269 -128
2019-11-18 21:38:30 GMT 39.447052 -74.795578 9,200 350 265 -128
2019-11-18 21:38:25 GMT 39.435753 -74.792480 10,050 332 269 -128
2019-11-18 21:38:21 GMT 39.435753 -74.792480 9,175 342 267 -64
2019-11-18 21:38:18 GMT 39.431095 -74.790283 9,175 312 274 -512
2019-11-18 21:38:11 GMT 39.415878 -74.774200 10,050 310 286 -1088
2019-11-18 21:38:01 GMT 39.415878 -74.774200 10,050 310 286 -1088
2019-11-18 21:37:56 GMT 39.411732 -74.767822 9,325 310 280 -960
2019-11-18 21:37:51 GMT 39.407867 -74.761902 9,600 310 289 -1024
2019-11-18 21:37:46 GMT 39.403152 -74.754562 9,500 310 287 -960
2019-11-18 21:37:40 GMT 39.394085 -74.740356 10,050 310 292 -1024
2019-11-18 21:37:35 GMT 39.394085 -74.740356 9,675 310 294 -1024
2019-11-18 21:37:29 GMT 39.387955 -74.730797 9,800 310 298 -1024
2019-11-18 21:37:25 GMT 39.385288 -74.726624 9,950 310 301 -832
2019-11-18 21:37:16 GMT 39.376282 -74.712524 10,000 310 301 -1024
2019-11-18 21:37:12 GMT 39.373764 -74.708641 10,050 310 302 -1152
2019-11-18 21:37:09 GMT 39.371136 -74.704468 10,125 310 302 -960
2019-11-18 21:37:05 GMT 39.367271 -74.698303 10,175 310 302 -896
2019-11-18 21:37:00 GMT 39.362137 -74.690193 10,300 310 302 -960
2019-11-18 21:36:53 GMT 39.356461 -74.681236 10,350 310 302 -960
2019-11-18 21:36:48 GMT 39.352421 -74.674805 10,425 310 302 -832
2019-11-18 21:36:43 GMT 39.348358 -74.668404 10,500 310 301 -896
2019-11-18 21:36:37 GMT 39.342361 -74.658905 10,600 310 300 -960
2019-11-18 21:36:33 GMT 39.339203 -74.653893 10,650 309 302 -1024
2019-11-18 21:36:30 GMT 39.336548 -74.649719 10,700 310 301 -960
2019-11-18 21:36:27 GMT 39.333893 -74.645531 10,725 310 301 -960
2019-11-18 21:36:23 GMT 39.330368 -74.639915 10,800 309 303 -1024
2019-11-18 21:36:16 GMT 39.323837 -74.629395 10,925 309 307 -832
2019-11-18 21:36:13 GMT 39.321487 -74.625648 11,000 309 308 -768
2019-11-18 21:36:06 GMT 39.315033 -74.615318 11,075 309 309 -832
2019-11-18 21:36:02 GMT 39.311508 -74.609528 11,175 309 306 -576
2019-11-18 21:35:58 GMT 39.307079 -74.602417 11,175 309 305 -320
2019-11-18 21:35:54 GMT 39.304459 -74.598122 11,175 309 304 64
2019-11-18 21:35:51 GMT 39.301620 -74.593529 11,175 309 304 64
2019-11-18 21:35:47 GMT 39.298328 -74.588135 11,175 309 304 64
2019-11-18 21:35:44 GMT 39.294510 -74.581848 11,175 308 305 -128
2019-11-18 21:35:41 GMT 39.293442 -74.580139 11,175 308 305 -128
2019-11-18 21:35:37 GMT 39.288971 -74.572632 11,175 308 304 -128
2019-11-18 21:35:32 GMT 39.285202 -74.566345 11,200 308 303 -64
2019-11-18 21:35:27 GMT 39.280197 -74.557999 11,175 308 303 64
2019-11-18 21:35:21 GMT 39.276264 -74.551331 11,175 308 304 -64
2019-11-18 21:35:16 GMT 39.271420 -74.543335 11,175 309 304 -128
2019-11-18 21:35:12 GMT 39.267426 -74.536804 11,175 309 303 0
2019-11-18 21:35:06 GMT 39.262482 -74.528862 11,175 310 304 64
2019-11-18 21:35:03 GMT 39.259457 -74.524109 11,175 310 304 0
2019-11-18 21:35:00 GMT 39.258015 -74.521851 11,175 312 303 -64
2019-11-18 21:34:56 GMT 39.253098 -74.514412 11,175 312 304 0
2019-11-18 21:34:50 GMT 39.248154 -74.507423 11,175 314 304 -64
2019-11-18 21:34:45 GMT 39.240143 -74.497154 11,200 319 304 -64
2019-11-18 21:34:39 GMT 39.237625 -74.494293 11,200 329 307 0
2019-11-18 21:34:32 GMT 39.229523 -74.486290 11,200 327 307 128
2019-11-18 21:34:29 GMT 39.225941 -74.483398 11,200 340 309 128
2019-11-18 21:34:25 GMT 39.218948 -74.479187 11,200 340 309 128
2019-11-18 21:34:20 GMT 39.211460 -74.476440 11,175 353 312 128
2019-11-18 21:34:14 GMT 39.204254 -74.475365 11,175 358 314 -128
2019-11-18 21:34:08 GMT 39.196983 -74.475159 11,175 0 314 0
2019-11-18 21:34:03 GMT 39.189102 -74.475006 11,175 359 314 0
2019-11-18 21:33:57 GMT 39.181000 -74.474770 11,200 359 313 0
2019-11-18 21:33:54 GMT 39.174313 -74.474548 11,200 359 313 0
2019-11-18 21:33:42 GMT 39.156902 -74.474060 11,200 359 313 0
2019-11-18 21:33:31 GMT 39.142982 -74.473694 11,200 359 313 128
2019-11-18 21:33:28 GMT 39.137772 -74.473511 11,200 359 313 0
2019-11-18 21:33:23 GMT 39.125885 -74.473038 11,175 359 313 0
2019-11-18 21:33:12 GMT 39.114899 -74.472557 11,175 358 313 -64
2019-11-18 21:33:06 GMT 39.106796 -74.472198 11,175 358 313 -64
2019-11-18 21:33:01 GMT 39.097504 -74.471840 11,175 359 312 64
2019-11-18 21:32:56 GMT 39.092613 -74.471619 11,175 359 312 -64
2019-11-18 21:32:50 GMT 39.083351 -74.471252 11,200 359 312 -64
2019-11-18 21:32:47 GMT 39.076973 -74.471008 11,200 359 312 -64
2019-11-18 21:32:39 GMT 39.066589 -74.470642 11,200 359 311 0
2019-11-18 21:32:36 GMT 39.062302 -74.470467 11,200 359 311 0
2019-11-18 21:32:29 GMT 39.053101 -74.470230 11,200 359 310 0
2019-11-18 21:32:21 GMT 39.040512 -74.469933 11,175 359 307 64
2019-11-18 21:32:18 GMT 39.037125 -74.469810 11,175 359 305 192
2019-11-18 21:32:08 GMT 39.023251 -74.469421 11,175 359 304 64
2019-11-18 21:32:01 GMT 39.013870 -74.469215 11,175 0 309 -64
2019-11-18 21:31:57 GMT 39.007282 -74.469055 11,175 0 310 -64
2019-11-18 21:31:54 GMT 39.003838 -74.468994 11,175 0 314 -64
2019-11-18 21:31:49 GMT 38.996567 -74.468857 11,175 0 316 -192
2019-11-18 21:31:45 GMT 38.988922 -74.468735 11,175 0 317 -256
2019-11-18 21:31:40 GMT 38.983356 -74.468628 11,200 0 317 -128
2019-11-18 21:31:37 GMT 38.978096 -74.468567 11,200 0 317 0
2019-11-18 21:31:27 GMT 38.962921 -74.470642 11,200 11 316 0
2019-11-18 21:31:23 GMT 38.958160 -74.472557 11,200 74 304 256
2019-11-18 21:31:17 GMT 38.950287 -74.477394 11,200 31 314 -128
2019-11-18 21:31:09 GMT 38.939941 -74.488083 11,200 38 313 64
2019-11-18 21:31:06 GMT 38.937130 -74.492310 11,200 52 310 -64
2019-11-18 21:30:56 GMT 38.930984 -74.506287 11,200 67 307 192
2019-11-18 21:30:51 GMT 38.929047 -74.514236 11,175 82 301 -64
2019-11-18 21:30:45 GMT 38.927681 -74.525208 11,175 83 300 64
2019-11-18 21:30:36 GMT 38.926483 -74.542534 11,200 84 298 -320
2019-11-18 21:30:29 GMT 38.925064 -74.562836 11,175 84 290 64
2019-11-18 21:30:25 GMT 38.925064 -74.562836 11,200 84 295 -64
2019-11-18 21:30:16 GMT 38.924103 -74.577408 11,200 84 293 128
2019-11-18 21:30:07 GMT 38.922958 -74.593941 11,175 84 291 0
2019-11-18 21:29:55 GMT 38.921585 -74.612511 11,175 84 292 0
2019-11-18 21:29:45 GMT 38.920231 -74.630859 11,175 84 294 -64
2019-11-18 21:29:35 GMT 38.919067 -74.647263 11,175 84 296 0
2019-11-18 21:29:25 GMT 38.917648 -74.665535 11,175 84 298 -64
2019-11-18 21:29:13 GMT 38.915997 -74.687073 11,175 84 300 64
2019-11-18 21:29:06 GMT 38.915039 -74.699570 11,175 84 302 0
2019-11-18 21:29:03 GMT 38.914627 -74.705238 11,175 84 303 -64
2019-11-18 21:28:58 GMT 38.914085 -74.712036 11,175 84 303 0
2019-11-18 21:28:54 GMT 38.913391 -74.721001 11,175 84 304 64
2019-11-18 21:28:43 GMT 38.911972 -74.738976 11,200 84 304 -64
2019-11-18 21:28:34 GMT 38.910507 -74.758324 11,200 84 303 0
2019-11-18 21:28:21 GMT 38.908951 -74.778259 11,200 84 299 128
2019-11-18 21:28:14 GMT 38.907440 -74.797249 11,200 84 295 64
2019-11-18 21:28:02 GMT 38.906124 -74.814270 11,175 84 292 64
2019-11-18 21:27:52 GMT 38.904915 -74.830078 11,175 84 290 -128
2019-11-18 21:27:42 GMT 38.903687 -74.846268 11,150 84 296 -192
2019-11-18 21:27:33 GMT 38.902122 -74.865417 11,175 83 298 0
2019-11-18 21:27:21 GMT 38.900528 -74.884308 11,200 83 305 -128
2019-11-18 21:27:11 GMT 38.899155 -74.902336 11,225 84 304 64
2019-11-18 21:27:04 GMT 38.897919 -74.915237 11,200 79 305 192
2019-11-18 21:27:00 GMT 38.897049 -74.920532 11,200 70 309 64
2019-11-18 21:26:53 GMT 38.892159 -74.935364 11,175 57 312 128
2019-11-18 21:26:46 GMT 38.886948 -74.944336 11,175 48 316 192
2019-11-18 21:26:40 GMT 38.871166 -74.959473 11,175 32 327 -384
2019-11-18 21:26:26 GMT 38.861900 -74.965942 11,175 28 338 128
2019-11-18 21:26:17 GMT 38.849854 -74.974403 11,175 28 349 64
2019-11-18 21:26:07 GMT 38.834667 -74.985168 11,175 29 354 -64
2019-11-18 21:25:57 GMT 38.821198 -74.994766 11,175 28 355 0
2019-11-18 21:25:46 GMT 38.805340 -75.005920 11,175 28 355 64
2019-11-18 21:25:36 GMT 38.790955 -75.016174 11,200 28 357 -192
2019-11-18 21:25:32 GMT 38.784302 -75.020859 11,175 29 355 0
2019-11-18 21:25:22 GMT 38.770752 -75.030518 11,175 29 356 0
2019-11-18 21:25:14 GMT 38.758850 -75.038887 11,175 29 358 -64
2019-11-18 21:25:04 GMT 38.701813 -75.079674 11,175 29 359 0
2019-11-18 21:24:35 GMT 38.701813 -75.079674 11,200 28 322 1024
2019-11-18 21:24:19 GMT 38.677460 -75.096863 11,200 28 362 0
2019-11-18 21:24:16 GMT 38.673969 -75.099304 11,200 29 349 64
2019-11-18 21:24:06 GMT 38.659866 -75.109314 11,200 28 338 0
2019-11-18 21:23:34 GMT 38.618179 -75.138306 11,025 28 322 1024
2019-11-18 21:23:28 GMT 38.610054 -75.143921 10,925 28 321 1024
2019-11-18 21:23:22 GMT 38.589710 -75.158203 10,575 28 320 1088
2019-11-18 21:23:13 GMT 38.589710 -75.158203 10,575 28 319 1024
2019-11-18 21:23:10 GMT 38.584305 -75.162071 10,575 28 319 1024
2019-11-18 21:22:48 GMT 38.556976 -75.181351 10,275 29 315 1024
2019-11-18 21:22:41 GMT 38.548046 -75.187744 10,075 29 315 1088
2019-11-18 21:22:32 GMT 38.536873 -75.195862 9,850 29 313 1088
We lost coverage of the aircraft here for a total of 64 minutes
2019-11-18 20:18:33 GMT 38.698975 -75.456367 5,375 187 253 -1600
2019-11-18 20:18:28 GMT 38.704834 -75.455566 5,500 187 253 -1600
2019-11-18 20:18:20 GMT 38.715363 -75.453979 5,750 187 253 -1600
2019-11-18 20:18:10 GMT 38.725876 -75.452454 5,975 187 253 -1536
2019-11-18 20:18:00 GMT 38.737514 -75.450745 6,250 187 254 -1600
2019-11-18 20:17:50 GMT 38.750130 -75.448975 6,525 187 254 -1536
2019-11-18 20:17:39 GMT 38.761642 -75.447357 7,300 187 256 -1664
2019-11-18 20:17:20 GMT 38.784576 -75.443909 7,300 187 256 -1664
2019-11-18 20:17:17 GMT 38.789326 -75.443176 7,400 187 258 -1536
2019-11-18 20:17:08 GMT 38.798870 -75.441650 7,650 188 259 -1600
2019-11-18 20:16:56 GMT 38.813210 -75.439392 8,250 188 258 -1600
2019-11-18 20:16:43 GMT 38.829254 -75.436966 8,250 188 258 -1600
2019-11-18 20:16:33 GMT 38.839928 -75.435303 8,500 187 257 -1536
2019-11-18 20:16:24 GMT 38.850632 -75.433624 8,650 187 255 -1472
2019-11-18 20:16:14 GMT 38.862228 -75.431824 8,975 187 256 -1600
2019-11-18 20:16:07 GMT 38.871872 -75.430336 9,625 187 255 -1472
2019-11-18 20:16:03 GMT 38.874935 -75.429871 9,250 187 255 -1536
2019-11-18 20:15:55 GMT 38.885559 -75.428368 9,475 187 255 -1600
2019-11-18 20:15:46 GMT 38.895447 -75.426933 9,700 187 256 -1408
2019-11-18 20:15:43 GMT 38.899704 -75.426338 9,800 187 256 -1536
2019-11-18 20:15:34 GMT 38.909851 -75.424866 10,025 187 257 -1664
2019-11-18 20:15:31 GMT 38.913895 -75.424309 10,100 187 257 -1600
2019-11-18 20:15:19 GMT 38.927029 -75.422485 10,400 187 260 -1664
2019-11-18 20:15:11 GMT 38.946487 -75.419678 10,725 187 265 -1344
2019-11-18 20:15:04 GMT 38.946487 -75.419678 10,800 187 267 -1600
2019-11-18 20:15:00 GMT 38.950195 -75.419113 10,875 187 270 -1536
2019-11-18 20:14:54 GMT 38.965164 -75.416962 11,175 187 274 -1280
2019-11-18 20:14:49 GMT 38.965164 -75.416962 11,175 187 273 -1472
2019-11-18 20:14:44 GMT 38.971710 -75.415947 11,350 187 279 -1216
2019-11-18 20:14:37 GMT 38.983566 -75.414215 11,450 187 306 -1024
2019-11-18 20:14:34 GMT 38.983566 -75.414215 11,475 187 282 -1216
2019-11-18 20:14:28 GMT 38.991989 -75.413025 11,600 187 288 -1152
2019-11-18 20:14:22 GMT 39.001324 -75.411621 11,725 187 296 -1216
2019-11-18 20:14:19 GMT 39.004025 -75.411194 11,775 187 296 -1088
2019-11-18 20:14:10 GMT 39.016685 -75.409302 12,175 187 306 -1088
2019-11-18 20:14:07 GMT 39.020039 -75.408813 11,975 187 305 -1024
2019-11-18 20:14:03 GMT 39.026276 -75.407898 12,100 187 311 -960
2019-11-18 20:13:57 GMT 39.034332 -75.406799 12,150 187 317 -448
2019-11-18 20:13:54 GMT 39.040195 -75.406006 12,175 187 335 64
2019-11-18 20:13:50 GMT 39.050720 -75.404488 12,175 187 335 -64
2019-11-18 20:13:43 GMT 39.056259 -75.403709 12,175 187 335 64
2019-11-18 20:13:40 GMT 39.060863 -75.403015 12,175 187 335 128
2019-11-18 20:13:37 GMT 39.064865 -75.402451 12,175 187 335 64
2019-11-18 20:13:30 GMT 39.076321 -75.400635 12,175 188 338 0
2019-11-18 20:13:27 GMT 39.080933 -75.399887 12,175 188 336 0
2019-11-18 20:13:22 GMT 39.088989 -75.398575 12,175 188 337 -64
2019-11-18 20:13:16 GMT 39.104858 -75.395935 12,175 188 338 0
2019-11-18 20:13:12 GMT 39.104858 -75.395935 12,175 187 340 64
2019-11-18 20:13:05 GMT 39.114216 -75.394531 12,175 187 340 0
2019-11-18 20:13:00 GMT 39.123619 -75.393127 12,175 187 342 0
2019-11-18 20:12:53 GMT 39.132706 -75.391769 12,175 187 344 -128
2019-11-18 20:12:49 GMT 39.140305 -75.390633 12,150 187 343 64
2019-11-18 20:12:45 GMT 39.146290 -75.389771 12,150 188 343 -64
2019-11-18 20:12:41 GMT 39.151966 -75.388855 12,150 188 343 -64
2019-11-18 20:12:38 GMT 39.156738 -75.388123 12,175 188 343 -64
2019-11-18 20:12:32 GMT 39.167797 -75.386414 12,175 187 344 -64
2019-11-18 20:12:28 GMT 39.172871 -75.385620 12,175 187 344 0
2019-11-18 20:12:23 GMT 39.180771 -75.384422 12,175 183 344 0
2019-11-18 20:12:20 GMT 39.187088 -75.383530 12,175 185 344 0
2019-11-18 20:12:13 GMT 39.196285 -75.382446 12,175 184 344 64
2019-11-18 20:12:09 GMT 39.205223 -75.381592 12,175 183 344 0
2019-11-18 20:12:00 GMT 39.217934 -75.380798 12,175 183 344 -64
2019-11-18 20:11:55 GMT 39.224960 -75.380432 12,175 183 345 0
2019-11-18 20:11:51 GMT 39.233898 -75.379883 12,175 183 345 -64
2019-11-18 20:11:47 GMT 39.238678 -75.379524 12,175 183 345 0
2019-11-18 20:11:40 GMT 39.249573 -75.378807 12,175 183 345 -64
2019-11-18 20:11:37 GMT 39.254337 -75.378479 12,175 183 345 0
2019-11-18 20:11:32 GMT 39.262016 -75.377991 12,175 183 345 0
2019-11-18 20:11:27 GMT 39.271004 -75.377380 12,175 183 346 0
2019-11-18 20:11:20 GMT 39.283154 -75.376648 12,175 183 346 0
2019-11-18 20:11:15 GMT 39.288574 -75.376305 12,175 183 346 -64
2019-11-18 20:11:10 GMT 39.299168 -75.375610 12,175 183 346 0
2019-11-18 20:11:05 GMT 39.305923 -75.375168 12,175 183 347 64
2019-11-18 20:10:59 GMT 39.315536 -75.374634 12,175 183 347 -64
2019-11-18 20:10:56 GMT 39.320999 -75.374268 12,175 183 347 -64
2019-11-18 20:10:48 GMT 39.332245 -75.373558 12,175 183 348 64
2019-11-18 20:10:45 GMT 39.341576 -75.372986 12,175 183 348 0
2019-11-18 20:10:42 GMT 39.346745 -75.372742 12,175 183 348 64
2019-11-18 20:10:39 GMT 39.353214 -75.372437 12,175 183 348 0
2019-11-18 20:10:35 GMT 39.353214 -75.372437 12,175 183 349 0
2019-11-18 20:10:31 GMT 39.362244 -75.371948 12,175 183 349 64
2019-11-18 20:10:25 GMT 39.370926 -75.371468 12,175 183 349 0
2019-11-18 20:10:18 GMT 39.382915 -75.370728 12,150 183 350 128
2019-11-18 20:10:15 GMT 39.386173 -75.370483 12,150 183 350 0
2019-11-18 20:10:12 GMT 39.390038 -75.370239 12,150 183 350 0
2019-11-18 20:10:08 GMT 39.402054 -75.369492 12,175 183 352 -64
2019-11-18 20:10:05 GMT 39.402054 -75.369492 12,175 183 352 -64
2019-11-18 20:09:58 GMT 39.413818 -75.368896 12,175 183 354 0
2019-11-18 20:09:54 GMT 39.421051 -75.368538 12,175 183 355 0
2019-11-18 20:09:51 GMT 39.424347 -75.368362 12,175 183 355 0
2019-11-18 20:09:47 GMT 39.432907 -75.367882 12,175 183 342 -64
2019-11-18 20:09:42 GMT 39.441151 -75.367371 12,175 183 353 -64
2019-11-18 20:09:39 GMT 39.449295 -75.366867 12,175 183 352 0
2019-11-18 20:09:32 GMT 39.455490 -75.366455 12,175 183 350 0
2019-11-18 20:09:28 GMT 39.464218 -75.365913 12,175 183 348 -64
2019-11-18 20:09:22 GMT 39.473553 -75.365356 12,175 183 345 0
2019-11-18 20:09:16 GMT 39.483398 -75.364777 12,175 183 343 0
2019-11-18 20:09:12 GMT 39.488121 -75.364441 12,175 184 340 -64
2019-11-18 20:09:09 GMT 39.494408 -75.364014 12,175 184 337 -64
2019-11-18 20:09:02 GMT 39.504368 -75.363281 12,175 184 333 64
2019-11-18 20:08:59 GMT 39.508942 -75.362930 12,175 184 330 64
2019-11-18 20:08:55 GMT 39.514797 -75.362549 12,175 184 328 128
2019-11-18 20:08:52 GMT 39.519333 -75.362213 12,175 183 326 192
2019-11-18 20:08:46 GMT 39.527756 -75.361610 12,150 183 323 256
2019-11-18 20:08:42 GMT 39.534943 -75.361198 12,125 183 318 256
2019-11-18 20:08:34 GMT 39.546066 -75.360481 12,025 183 309 768
2019-11-18 20:08:31 GMT 39.550690 -75.360184 12,025 183 309 704
2019-11-18 20:08:23 GMT 39.561722 -75.359497 11,900 183 302 832
2019-11-18 20:08:19 GMT 39.566795 -75.359192 11,875 183 297 832
2019-11-18 20:08:13 GMT 39.575035 -75.358643 11,775 183 293 896
2019-11-18 20:08:10 GMT 39.587173 -75.357971 11,575 183 286 1216
2019-11-18 20:08:04 GMT 39.587173 -75.357971 11,650 183 286 1152
2019-11-18 20:07:59 GMT 39.600594 -75.357117 11,200 183 281 1280
2019-11-18 20:07:55 GMT 39.600594 -75.357117 11,425 184 280 1216
2019-11-18 20:07:52 GMT 39.603199 -75.356934 11,400 184 277 1344
2019-11-18 20:07:49 GMT 39.607296 -75.356689 11,350 184 277 1344
2019-11-18 20:07:46 GMT 39.611347 -75.356384 11,250 184 273 1344
2019-11-18 20:07:43 GMT 39.615860 -75.356018 11,175 184 270 1408
2019-11-18 20:07:38 GMT 39.620842 -75.355652 11,075 184 267 1472
2019-11-18 20:07:34 GMT 39.626801 -75.355164 10,950 184 264 1920
2019-11-18 20:07:31 GMT 39.629734 -75.354980 10,700 184 258 1792
2019-11-18 20:07:28 GMT 39.632858 -75.354744 10,775 184 258 1856
2019-11-18 20:07:23 GMT 39.639881 -75.354248 10,600 184 258 1856
2019-11-18 20:07:20 GMT 39.646774 -75.353729 10,375 184 255 1920
2019-11-18 20:07:17 GMT 39.646774 -75.353729 10,425 184 255 1920
2019-11-18 20:07:12 GMT 39.653824 -75.353256 10,175 184 252 3008
2019-11-18 20:07:08 GMT 39.657120 -75.353073 10,100 183 251 2624
2019-11-18 20:07:05 GMT 39.661285 -75.352837 9,925 183 251 2944
2019-11-18 20:06:57 GMT 39.671082 -75.352119 9,525 184 252 2944
2019-11-18 20:06:54 GMT 39.673634 -75.351929 9,150 184 253 2752
2019-11-18 20:06:47 GMT 39.681595 -75.351318 8,525 184 251 2496
2019-11-18 20:06:41 GMT 39.689087 -75.350708 8,825 184 252 2496
2019-11-18 20:06:38 GMT 39.693008 -75.350388 8,700 184 251 2560
2019-11-18 20:06:27 GMT 39.709671 -75.349014 8,150 184 248 2560
2019-11-18 20:06:23 GMT 39.709671 -75.349014 7,050 184 248 2688
2019-11-18 20:06:19 GMT 39.713108 -75.348755 7,925 184 247 2496
2019-11-18 20:06:15 GMT 39.719067 -75.348328 7,725 184 246 2496
2019-11-18 20:06:10 GMT 39.724979 -75.347961 7,500 183 244 2432
2019-11-18 20:06:07 GMT 39.727890 -75.347824 7,225 181 243 2688
2019-11-18 20:06:03 GMT 39.732880 -75.347641 7,200 181 243 2752
2019-11-18 20:05:59 GMT 39.736710 -75.347595 7,100 180 242 2816
2019-11-18 20:05:55 GMT 39.740715 -75.347656 6,875 178 242 2560
2019-11-18 20:05:50 GMT 39.746532 -75.348022 6,675 175 239 2496
2019-11-18 20:05:45 GMT 39.751373 -75.348450 6,375 175 236 2240
2019-11-18 20:05:39 GMT 39.758404 -75.349121 6,175 178 232 0
2019-11-18 20:05:36 GMT 39.762955 -75.349434 6,100 179 230 2048
2019-11-18 20:05:26 GMT 39.773346 -75.349121 5,825 187 225 2112
2019-11-18 20:05:23 GMT 39.784428 -75.345337 5,700 189 223 2112
2019-11-18 20:05:14 GMT 39.784428 -75.345337 5,400 205 220 2560
2019-11-18 20:05:08 GMT 39.789093 -75.341614 5,100 216 218 3008
2019-11-18 20:04:58 GMT 39.798615 -75.332718 4,475 215 219 3456
2019-11-18 20:04:53 GMT 39.801956 -75.329727 4,200 215 220 3648
2019-11-18 20:04:47 GMT 39.807449 -75.324951 3,675 214 223 3520
2019-11-18 20:04:43 GMT 39.816223 -75.317322 3,600 214 223 3584
2019-11-18 20:04:37 GMT 39.816223 -75.317322 3,250 215 226 2816
2019-11-18 20:04:33 GMT 39.820038 -75.313965 2,950 215 224 2432
2019-11-18 20:04:28 GMT 39.824135 -75.310303 2,875 215 222 2048
2019-11-18 20:04:14 GMT 39.835217 -75.300232 2,500 217 201 1536
2019-11-18 20:04:11 GMT 39.837524 -75.298080 2,425 217 198 1664
2019-11-18 20:04:07 GMT 39.842514 -75.293304 2,225 217 191 1536

Making use of Plane Finder data

You are free to use the raw flight data, aircraft information and images provided in this report for your own purposes provided the data is correctly attributed to Plane Finder. We ask that you please credit Plane Finder and link to planefinder.net in close proximity to the content.

Optionally one of the following logos (no smaller then 150x24px) can be used and must link to planefinder.net

Embedding the Plane Finder map

You are welcome to embed the Plane Finder playback map on your website to offer visitors a more interactive experience. We suggest using the following HTML code:

<iframe src="//planefinder.net/data/report/AA4780-N652RS-7700-squawk-2019-11-18/map" width="800" height="600" seamless="seamless"></iframe>

Where our data comes from

Plane Finder has a global network of data feeds and antenna radars that receive data broadcast directly from aircraft. The primary technologies used are ADS-B and MLAT. We also show feeds from the FAA and a FLARM glider feed.

Click here to find out more about the Plane Finder network.

How we collect our data